sensor_id;sensor_type;location;lat;lon;timestamp;pressure;altitude;pressure_sealevel;temperature;humidity
6224;BME280;3145;42.726;23.342;2022-10-26T00:01:05;95792.97;;;15.89;75.77
6224;BME280;3145;42.726;23.342;2022-10-26T00:03:35;95795.44;;;15.84;75.99
6224;BME280;3145;42.726;23.342;2022-10-26T00:06:04;95794.34;;;15.72;76.75
6224;BME280;3145;42.726;23.342;2022-10-26T00:08:31;95781.84;;;15.66;76.79
6224;BME280;3145;42.726;23.342;2022-10-26T00:10:57;95797.03;;;15.72;76.73
6224;BME280;3145;42.726;23.342;2022-10-26T00:13:24;95758.63;;;15.53;77.00
6224;BME280;3145;42.726;23.342;2022-10-26T00:15:51;95663.91;;;14.91;77.07
6224;BME280;3145;42.726;23.342;2022-10-26T00:18:18;95782.22;;;15.56;77.03
6224;BME280;3145;42.726;23.342;2022-10-26T00:20:46;95788.16;;;15.58;77.77
6224;BME280;3145;42.726;23.342;2022-10-26T00:23:12;95767.81;;;15.44;77.48
6224;BME280;3145;42.726;23.342;2022-10-26T00:25:39;95744.34;;;15.27;78.06
6224;BME280;3145;42.726;23.342;2022-10-26T00:28:06;95795.34;;;15.58;77.92
6224;BME280;3145;42.726;23.342;2022-10-26T00:30:38;95773.94;;;15.45;77.71
6224;BME280;3145;42.726;23.342;2022-10-26T00:33:05;95796.53;;;15.55;78.44
6224;BME280;3145;42.726;23.342;2022-10-26T00:35:31;95782.97;;;15.44;78.21
6224;BME280;3145;42.726;23.342;2022-10-26T00:37:59;95800.59;;;15.51;78.79
6224;BME280;3145;42.726;23.342;2022-10-26T00:40:27;95761.13;;;15.27;78.92
6224;BME280;3145;42.726;23.342;2022-10-26T00:42:54;95795.44;;;15.43;79.31
6224;BME280;3145;42.726;23.342;2022-10-26T00:45:24;95794.81;;;15.35;79.99
6224;BME280;3145;42.726;23.342;2022-10-26T00:47:53;95792.75;;;15.37;79.78
6224;BME280;3145;42.726;23.342;2022-10-26T00:50:25;95798.09;;;15.37;79.79
6224;BME280;3145;42.726;23.342;2022-10-26T00:52:56;95793.72;;;15.29;81.01
6224;BME280;3145;42.726;23.342;2022-10-26T00:55:28;95795.16;;;15.32;80.37
6224;BME280;3145;42.726;23.342;2022-10-26T00:57:56;95787.34;;;15.24;80.97
6224;BME280;3145;42.726;23.342;2022-10-26T01:00:24;95769.44;;;15.11;81.11
6224;BME280;3145;42.726;23.342;2022-10-26T01:02:51;95788.97;;;15.25;80.75
6224;BME280;3145;42.726;23.342;2022-10-26T01:05:20;95772.28;;;15.10;81.12
6224;BME280;3145;42.726;23.342;2022-10-26T01:07:47;95795.56;;;15.29;80.88
6224;BME280;3145;42.726;23.342;2022-10-26T01:10:14;95791.63;;;15.25;80.94
6224;BME280;3145;42.726;23.342;2022-10-26T01:12:44;95756.44;;;14.95;81.09
6224;BME280;3145;42.726;23.342;2022-10-26T01:15:12;95806.16;;;15.22;80.94
6224;BME280;3145;42.726;23.342;2022-10-26T01:17:49;95790.59;;;15.26;80.67
6224;BME280;3145;42.726;23.342;2022-10-26T01:20:38;95799.59;;;15.18;81.38
6224;BME280;3145;42.726;23.342;2022-10-26T01:23:14;95803.31;;;15.24;81.06
6224;BME280;3145;42.726;23.342;2022-10-26T01:26:07;95793.50;;;15.24;80.86
6224;BME280;3145;42.726;23.342;2022-10-26T01:28:57;95788.75;;;15.20;80.80
6224;BME280;3145;42.726;23.342;2022-10-26T01:31:38;95793.00;;;15.14;81.10
6224;BME280;3145;42.726;23.342;2022-10-26T01:34:11;95800.44;;;15.19;80.77
6224;BME280;3145;42.726;23.342;2022-10-26T01:36:42;95788.88;;;15.05;81.47
6224;BME280;3145;42.726;23.342;2022-10-26T01:39:15;95774.88;;;14.97;81.39
6224;BME280;3145;42.726;23.342;2022-10-26T01:41:45;95787.28;;;15.11;81.24
6224;BME280;3145;42.726;23.342;2022-10-26T01:44:17;95789.75;;;15.12;81.38
6224;BME280;3145;42.726;23.342;2022-10-26T01:46:48;95757.66;;;14.93;81.35
6224;BME280;3145;42.726;23.342;2022-10-26T01:49:19;95781.50;;;15.07;81.37
6224;BME280;3145;42.726;23.342;2022-10-26T01:51:48;95792.59;;;15.11;81.21
6224;BME280;3145;42.726;23.342;2022-10-26T01:54:15;95776.78;;;15.03;81.21
6224;BME280;3145;42.726;23.342;2022-10-26T01:56:44;95773.84;;;14.98;80.96
6224;BME280;3145;42.726;23.342;2022-10-26T02:05:30;95782.94;;;14.76;81.62
6224;BME280;3145;42.726;23.342;2022-10-26T02:08:07;95792.06;;;14.67;81.59
6224;BME280;3145;42.726;23.342;2022-10-26T02:10:45;95788.50;;;14.53;81.89
6224;BME280;3145;42.726;23.342;2022-10-26T02:13:17;95798.28;;;14.53;81.98
6224;BME280;3145;42.726;23.342;2022-10-26T02:15:52;95795.75;;;14.45;82.62
6224;BME280;3145;42.726;23.342;2022-10-26T02:18:29;95795.28;;;14.35;83.36
6224;BME280;3145;42.726;23.342;2022-10-26T02:21:02;95796.41;;;14.26;83.84
6224;BME280;3145;42.726;23.342;2022-10-26T02:23:32;95800.06;;;14.25;83.77
6224;BME280;3145;42.726;23.342;2022-10-26T02:26:02;95791.69;;;14.21;83.70
6224;BME280;3145;42.726;23.342;2022-10-26T02:28:33;95811.25;;;14.20;84.13
6224;BME280;3145;42.726;23.342;2022-10-26T02:31:03;95806.50;;;14.16;84.04
6224;BME280;3145;42.726;23.342;2022-10-26T02:33:35;95772.34;;;13.92;84.14
6224;BME280;3145;42.726;23.342;2022-10-26T02:36:05;95807.63;;;14.07;84.31
6224;BME280;3145;42.726;23.342;2022-10-26T02:38:34;95808.63;;;14.06;84.25
6224;BME280;3145;42.726;23.342;2022-10-26T02:41:03;95802.72;;;14.04;84.17
6224;BME280;3145;42.726;23.342;2022-10-26T02:43:35;95811.66;;;14.02;84.49
6224;BME280;3145;42.726;23.342;2022-10-26T02:46:06;95799.78;;;13.98;84.03
6224;BME280;3145;42.726;23.342;2022-10-26T02:48:35;95807.84;;;13.90;84.41
6224;BME280;3145;42.726;23.342;2022-10-26T02:51:07;95812.91;;;13.85;84.93
6224;BME280;3145;42.726;23.342;2022-10-26T02:53:41;95800.41;;;13.79;84.82
6224;BME280;3145;42.726;23.342;2022-10-26T02:56:16;95809.16;;;13.80;85.06
6224;BME280;3145;42.726;23.342;2022-10-26T02:58:47;95811.75;;;13.73;85.02
6224;BME280;3145;42.726;23.342;2022-10-26T03:01:16;95812.69;;;13.66;85.05
6224;BME280;3145;42.726;23.342;2022-10-26T03:03:44;95824.41;;;13.71;84.89
6224;BME280;3145;42.726;23.342;2022-10-26T03:06:11;95823.94;;;13.68;85.61
6224;BME280;3145;42.726;23.342;2022-10-26T03:08:38;95820.84;;;13.64;85.48
6224;BME280;3145;42.726;23.342;2022-10-26T03:11:04;95690.88;;;12.77;85.34
6224;BME280;3145;42.726;23.342;2022-10-26T03:13:31;95821.50;;;13.52;86.04
6224;BME280;3145;42.726;23.342;2022-10-26T03:15:58;95829.63;;;13.50;86.23
6224;BME280;3145;42.726;23.342;2022-10-26T03:18:25;95793.78;;;13.25;86.37
6224;BME280;3145;42.726;23.342;2022-10-26T03:20:53;95840.84;;;13.46;86.99
6224;BME280;3145;42.726;23.342;2022-10-26T03:23:20;95842.22;;;13.42;87.45
6224;BME280;3145;42.726;23.342;2022-10-26T03:25:46;95839.47;;;13.35;88.19
6224;BME280;3145;42.726;23.342;2022-10-26T03:28:13;95833.94;;;13.37;88.27
6224;BME280;3145;42.726;23.342;2022-10-26T03:30:40;95836.16;;;13.33;88.74
6224;BME280;3145;42.726;23.342;2022-10-26T03:33:07;95786.63;;;12.97;89.24
6224;BME280;3145;42.726;23.342;2022-10-26T03:35:34;95836.69;;;13.29;89.18
6224;BME280;3145;42.726;23.342;2022-10-26T03:38:02;95831.59;;;13.27;88.98
6224;BME280;3145;42.726;23.342;2022-10-26T03:40:29;95831.59;;;13.27;89.38
6224;BME280;3145;42.726;23.342;2022-10-26T03:42:55;95838.56;;;13.28;89.70
6224;BME280;3145;42.726;23.342;2022-10-26T03:45:22;95841.81;;;13.30;89.71
6224;BME280;3145;42.726;23.342;2022-10-26T03:47:49;95653.47;;;12.14;89.23
6224;BME280;3145;42.726;23.342;2022-10-26T03:50:18;95845.13;;;13.32;89.48
6224;BME280;3145;42.726;23.342;2022-10-26T03:52:46;95844.78;;;13.35;89.82
6224;BME280;3145;42.726;23.342;2022-10-26T03:55:14;95844.78;;;13.35;89.45
6224;BME280;3145;42.726;23.342;2022-10-26T03:57:41;95830.22;;;13.31;89.76
6224;BME280;3145;42.726;23.342;2022-10-26T04:00:10;95834.03;;;13.29;89.98
6224;BME280;3145;42.726;23.342;2022-10-26T04:02:37;95833.59;;;13.25;90.68
6224;BME280;3145;42.726;23.342;2022-10-26T04:05:04;95839.75;;;13.26;90.36
6224;BME280;3145;42.726;23.342;2022-10-26T04:07:31;95842.22;;;13.27;90.63
6224;BME280;3145;42.726;23.342;2022-10-26T04:09:58;95839.56;;;13.27;90.95
6224;BME280;3145;42.726;23.342;2022-10-26T04:12:26;95838.56;;;13.28;90.93
6224;BME280;3145;42.726;23.342;2022-10-26T04:14:53;95846.59;;;13.20;90.75
6224;BME280;3145;42.726;23.342;2022-10-26T04:17:22;95842.94;;;13.21;91.43
6224;BME280;3145;42.726;23.342;2022-10-26T04:19:49;95845.84;;;13.26;91.67
6224;BME280;3145;42.726;23.342;2022-10-26T04:22:15;95848.50;;;13.26;91.45
6224;BME280;3145;42.726;23.342;2022-10-26T04:24:42;95841.91;;;13.22;91.64
6224;BME280;3145;42.726;23.342;2022-10-26T04:27:09;95851.06;;;13.20;91.52
6224;BME280;3145;42.726;23.342;2022-10-26T04:29:37;95852.22;;;12.88;89.64
6224;BME280;3145;42.726;23.342;2022-10-26T04:32:04;95859.13;;;12.75;89.61
6224;BME280;3145;42.726;23.342;2022-10-26T04:34:31;95861.81;;;12.52;89.62
6224;BME280;3145;42.726;23.342;2022-10-26T04:36:58;95861.22;;;12.42;89.63
6224;BME280;3145;42.726;23.342;2022-10-26T04:39:25;95875.25;;;12.28;90.19
6224;BME280;3145;42.726;23.342;2022-10-26T04:41:52;95867.09;;;12.07;90.58
6224;BME280;3145;42.726;23.342;2022-10-26T04:44:19;95855.06;;;11.97;90.21
6224;BME280;3145;42.726;23.342;2022-10-26T04:46:47;95874.56;;;12.04;90.05
6224;BME280;3145;42.726;23.342;2022-10-26T04:49:14;95879.56;;;11.99;90.16
6224;BME280;3145;42.726;23.342;2022-10-26T04:51:41;95871.59;;;11.76;91.93
6224;BME280;3145;42.726;23.342;2022-10-26T04:54:07;95863.66;;;11.76;92.09
6224;BME280;3145;42.726;23.342;2022-10-26T04:56:34;95866.47;;;11.75;92.49
6224;BME280;3145;42.726;23.342;2022-10-26T04:59:01;95878.34;;;11.79;92.75
6224;BME280;3145;42.726;23.342;2022-10-26T05:01:30;95869.25;;;11.81;93.07
6224;BME280;3145;42.726;23.342;2022-10-26T05:03:58;95864.94;;;11.80;92.61
6224;BME280;3145;42.726;23.342;2022-10-26T05:06:24;95884.75;;;11.92;91.67
6224;BME280;3145;42.726;23.342;2022-10-26T05:08:51;95884.59;;;11.86;91.90
6224;BME280;3145;42.726;23.342;2022-10-26T05:11:18;95874.94;;;11.62;91.65
6224;BME280;3145;42.726;23.342;2022-10-26T05:13:46;95885.13;;;11.81;91.48
6224;BME280;3145;42.726;23.342;2022-10-26T05:16:13;95888.66;;;12.04;91.99
6224;BME280;3145;42.726;23.342;2022-10-26T05:18:41;95870.28;;;12.25;92.16
6224;BME280;3145;42.726;23.342;2022-10-26T05:21:09;95852.91;;;12.45;91.76
6224;BME280;3145;42.726;23.342;2022-10-26T05:23:36;95885.69;;;12.89;90.22
6224;BME280;3145;42.726;23.342;2022-10-26T05:26:03;95884.56;;;13.21;89.74
6224;BME280;3145;42.726;23.342;2022-10-26T05:28:30;95891.38;;;13.38;85.91
6224;BME280;3145;42.726;23.342;2022-10-26T05:30:57;95888.72;;;13.23;85.43
6224;BME280;3145;42.726;23.342;2022-10-26T05:33:24;95893.78;;;13.10;84.81
6224;BME280;3145;42.726;23.342;2022-10-26T05:35:53;95899.94;;;13.40;84.84
6224;BME280;3145;42.726;23.342;2022-10-26T05:38:21;95892.00;;;13.25;84.51
6224;BME280;3145;42.726;23.342;2022-10-26T05:40:48;95912.06;;;13.71;84.78
6224;BME280;3145;42.726;23.342;2022-10-26T05:43:16;95908.59;;;14.07;83.55
6224;BME280;3145;42.726;23.342;2022-10-26T05:45:43;95882.31;;;14.26;82.44
6224;BME280;3145;42.726;23.342;2022-10-26T05:48:10;95898.41;;;14.81;79.72
6224;BME280;3145;42.726;23.342;2022-10-26T05:50:37;95929.16;;;15.32;78.99
6224;BME280;3145;42.726;23.342;2022-10-26T05:53:04;95908.00;;;15.52;76.89
6224;BME280;3145;42.726;23.342;2022-10-26T05:55:33;95921.97;;;15.94;74.38
6224;BME280;3145;42.726;23.342;2022-10-26T05:58:00;95925.81;;;16.26;73.10
6224;BME280;3145;42.726;23.342;2022-10-26T06:00:28;95926.59;;;16.67;72.13
6224;BME280;3145;42.726;23.342;2022-10-26T06:03:15;95915.53;;;16.89;71.21
6224;BME280;3145;42.726;23.342;2022-10-26T06:05:51;95937.97;;;17.21;69.20
6224;BME280;3145;42.726;23.342;2022-10-26T06:08:20;95921.94;;;17.34;69.03
6224;BME280;3145;42.726;23.342;2022-10-26T06:10:49;95889.88;;;17.53;67.70
6224;BME280;3145;42.726;23.342;2022-10-26T06:13:16;95937.69;;;18.00;66.22
6224;BME280;3145;42.726;23.342;2022-10-26T06:15:51;95949.00;;;18.66;65.32
6224;BME280;3145;42.726;23.342;2022-10-26T06:18:28;95949.56;;;19.12;64.02
6224;BME280;3145;42.726;23.342;2022-10-26T06:21:09;95958.38;;;19.50;62.34
6224;BME280;3145;42.726;23.342;2022-10-26T06:23:46;95942.00;;;19.83;59.81
6224;BME280;3145;42.726;23.342;2022-10-26T06:26:28;95927.78;;;20.00;58.97
6224;BME280;3145;42.726;23.342;2022-10-26T06:29:04;95940.94;;;20.44;58.21
6224;BME280;3145;42.726;23.342;2022-10-26T06:31:33;95937.41;;;20.62;58.17
6224;BME280;3145;42.726;23.342;2022-10-26T06:34:00;95936.34;;;20.81;56.50
6224;BME280;3145;42.726;23.342;2022-10-26T06:36:28;95942.63;;;21.04;56.46
6224;BME280;3145;42.726;23.342;2022-10-26T06:38:59;95934.97;;;21.19;55.88
6224;BME280;3145;42.726;23.342;2022-10-26T06:41:30;95963.72;;;21.60;55.28
6224;BME280;3145;42.726;23.342;2022-10-26T06:43:58;95931.22;;;21.73;54.11
6224;BME280;3145;42.726;23.342;2022-10-26T06:46:34;95948.44;;;22.07;53.31
6224;BME280;3145;42.726;23.342;2022-10-26T06:49:09;95942.22;;;22.29;52.43
6224;BME280;3145;42.726;23.342;2022-10-26T06:51:42;95968.72;;;22.72;50.84
6224;BME280;3145;42.726;23.342;2022-10-26T06:54:15;95976.16;;;22.93;50.58
6224;BME280;3145;42.726;23.342;2022-10-26T06:56:46;95982.91;;;23.07;49.32
6224;BME280;3145;42.726;23.342;2022-10-26T06:59:32;95965.59;;;23.03;49.88
6224;BME280;3145;42.726;23.342;2022-10-26T07:02:02;95962.75;;;23.21;49.03
6224;BME280;3145;42.726;23.342;2022-10-26T07:04:29;95952.88;;;23.15;48.94
6224;BME280;3145;42.726;23.342;2022-10-26T07:06:56;95976.84;;;23.56;47.71
6224;BME280;3145;42.726;23.342;2022-10-26T07:09:22;95982.03;;;23.74;47.92
6224;BME280;3145;42.726;23.342;2022-10-26T07:11:51;95983.59;;;24.03;47.13
6224;BME280;3145;42.726;23.342;2022-10-26T07:14:17;95981.69;;;24.20;46.27
6224;BME280;3145;42.726;23.342;2022-10-26T07:16:44;95971.53;;;24.27;45.67
6224;BME280;3145;42.726;23.342;2022-10-26T07:19:11;95932.94;;;24.10;45.82
6224;BME280;3145;42.726;23.342;2022-10-26T07:21:38;95955.66;;;24.30;45.33
6224;BME280;3145;42.726;23.342;2022-10-26T07:24:05;95963.03;;;24.56;44.94
6224;BME280;3145;42.726;23.342;2022-10-26T07:26:32;95964.84;;;24.67;44.62
6224;BME280;3145;42.726;23.342;2022-10-26T07:29:00;95970.97;;;24.63;45.04
6224;BME280;3145;42.726;23.342;2022-10-26T07:31:27;95974.81;;;24.67;44.51
6224;BME280;3145;42.726;23.342;2022-10-26T07:33:54;95970.50;;;24.87;44.48
6224;BME280;3145;42.726;23.342;2022-10-26T07:36:21;95943.75;;;24.91;43.55
6224;BME280;3145;42.726;23.342;2022-10-26T07:38:50;95965.63;;;25.11;43.46
6224;BME280;3145;42.726;23.342;2022-10-26T07:41:17;95956.53;;;25.22;43.22
6224;BME280;3145;42.726;23.342;2022-10-26T07:43:44;95968.59;;;25.09;43.08
6224;BME280;3145;42.726;23.342;2022-10-26T07:46:13;95963.09;;;25.26;43.05
6224;BME280;3145;42.726;23.342;2022-10-26T07:48:40;95947.25;;;25.13;42.79
6224;BME280;3145;42.726;23.342;2022-10-26T07:51:08;95887.41;;;24.83;42.45
6224;BME280;3145;42.726;23.342;2022-10-26T07:53:34;95934.63;;;24.97;43.29
6224;BME280;3145;42.726;23.342;2022-10-26T07:56:01;95920.69;;;25.10;43.20
6224;BME280;3145;42.726;23.342;2022-10-26T07:58:28;95959.69;;;25.35;42.21
6224;BME280;3145;42.726;23.342;2022-10-26T08:00:55;95956.75;;;25.15;42.54
6224;BME280;3145;42.726;23.342;2022-10-26T08:03:23;95956.44;;;25.12;43.09
6224;BME280;3145;42.726;23.342;2022-10-26T08:05:50;95960.28;;;25.37;42.23
6224;BME280;3145;42.726;23.342;2022-10-26T08:08:20;95951.56;;;25.62;41.64
6224;BME280;3145;42.726;23.342;2022-10-26T08:10:47;95957.84;;;25.41;42.08
6224;BME280;3145;42.726;23.342;2022-10-26T08:13:13;95959.81;;;25.24;42.66
6224;BME280;3145;42.726;23.342;2022-10-26T08:15:40;95881.66;;;25.01;41.79
6224;BME280;3145;42.726;23.342;2022-10-26T08:18:07;95931.34;;;25.43;41.32
6224;BME280;3145;42.726;23.342;2022-10-26T08:20:35;95950.53;;;25.68;41.20
6224;BME280;3145;42.726;23.342;2022-10-26T08:23:02;95961.22;;;25.53;41.13
6224;BME280;3145;42.726;23.342;2022-10-26T08:25:30;95903.25;;;25.22;40.84
6224;BME280;3145;42.726;23.342;2022-10-26T08:27:59;95951.06;;;25.38;41.54
6224;BME280;3145;42.726;23.342;2022-10-26T08:30:26;95949.22;;;25.44;40.80
6224;BME280;3145;42.726;23.342;2022-10-26T08:32:57;95951.69;;;25.45;40.75
6224;BME280;3145;42.726;23.342;2022-10-26T08:35:24;95951.41;;;25.73;40.54
6224;BME280;3145;42.726;23.342;2022-10-26T08:37:52;95934.06;;;25.74;40.11
6224;BME280;3145;42.726;23.342;2022-10-26T08:40:21;95952.38;;;25.94;39.65
6224;BME280;3145;42.726;23.342;2022-10-26T08:42:53;95932.13;;;25.70;40.00
6224;BME280;3145;42.726;23.342;2022-10-26T08:45:25;95929.97;;;25.72;39.36
6224;BME280;3145;42.726;23.342;2022-10-26T08:47:55;95944.66;;;25.76;40.51
6224;BME280;3145;42.726;23.342;2022-10-26T08:50:26;95951.25;;;25.58;39.51
6224;BME280;3145;42.726;23.342;2022-10-26T08:53:00;95950.34;;;25.48;39.82
6224;BME280;3145;42.726;23.342;2022-10-26T08:55:33;95954.38;;;25.72;39.36
6224;BME280;3145;42.726;23.342;2022-10-26T08:58:09;95938.66;;;25.42;39.41
6224;BME280;3145;42.726;23.342;2022-10-26T09:00:39;95954.53;;;25.34;39.48
6224;BME280;3145;42.726;23.342;2022-10-26T09:03:11;95946.78;;;24.73;39.87
6224;BME280;3145;42.726;23.342;2022-10-26T09:05:45;95935.19;;;24.77;41.30
6224;BME280;3145;42.726;23.342;2022-10-26T09:08:22;95954.44;;;25.02;41.07
6224;BME280;3145;42.726;23.342;2022-10-26T09:10:59;95954.41;;;25.24;40.78
6224;BME280;3145;42.726;23.342;2022-10-26T09:13:35;95953.28;;;25.20;39.31
6224;BME280;3145;42.726;23.342;2022-10-26T09:16:12;95948.22;;;24.80;40.78
6224;BME280;3145;42.726;23.342;2022-10-26T09:18:50;95936.97;;;24.67;40.42
6224;BME280;3145;42.726;23.342;2022-10-26T09:21:27;95926.91;;;24.84;40.33
6224;BME280;3145;42.726;23.342;2022-10-26T09:24:03;95944.34;;;25.19;40.41
6224;BME280;3145;42.726;23.342;2022-10-26T09:26:35;95928.00;;;25.09;39.86
6224;BME280;3145;42.726;23.342;2022-10-26T09:29:06;95943.72;;;25.34;39.07
6224;BME280;3145;42.726;23.342;2022-10-26T09:31:39;95936.34;;;25.56;39.23
6224;BME280;3145;42.726;23.342;2022-10-26T09:34:15;95956.59;;;25.27;38.69
6224;BME280;3145;42.726;23.342;2022-10-26T09:36:42;95941.13;;;25.44;38.15
6224;BME280;3145;42.726;23.342;2022-10-26T09:39:14;95943.16;;;25.32;38.90
6224;BME280;3145;42.726;23.342;2022-10-26T09:41:49;95935.72;;;25.49;38.46
6224;BME280;3145;42.726;23.342;2022-10-26T09:44:21;95918.84;;;25.37;38.18
6224;BME280;3145;42.726;23.342;2022-10-26T09:46:55;95905.53;;;25.30;37.96
6224;BME280;3145;42.726;23.342;2022-10-26T09:49:28;95920.44;;;25.33;38.17
6224;BME280;3145;42.726;23.342;2022-10-26T09:52:02;95931.09;;;25.23;38.29
6224;BME280;3145;42.726;23.342;2022-10-26T09:54:32;95848.59;;;24.99;38.32
6224;BME280;3145;42.726;23.342;2022-10-26T09:56:59;95924.41;;;25.52;36.93
6224;BME280;3145;42.726;23.342;2022-10-26T09:59:28;95917.88;;;25.48;37.74
6224;BME280;3145;42.726;23.342;2022-10-26T10:01:57;95910.88;;;25.52;36.88
6224;BME280;3145;42.726;23.342;2022-10-26T10:04:24;95929.19;;;25.45;36.43
6224;BME280;3145;42.726;23.342;2022-10-26T10:09:37;95919.72;;;24.51;37.23
6224;BME280;3145;42.726;23.342;2022-10-26T10:12:05;95905.38;;;24.51;38.51
6224;BME280;3145;42.726;23.342;2022-10-26T10:14:37;95912.41;;;24.95;37.55
6224;BME280;3145;42.726;23.342;2022-10-26T10:17:06;95870.44;;;24.66;38.18
6224;BME280;3145;42.726;23.342;2022-10-26T10:19:36;95894.56;;;24.94;37.25
6224;BME280;3145;42.726;23.342;2022-10-26T10:22:08;95882.16;;;24.98;36.52
6224;BME280;3145;42.726;23.342;2022-10-26T10:24:39;95899.75;;;25.27;36.25
6224;BME280;3145;42.726;23.342;2022-10-26T10:27:16;95894.88;;;25.24;35.74
6224;BME280;3145;42.726;23.342;2022-10-26T10:29:46;95901.53;;;24.90;37.10
6224;BME280;3145;42.726;23.342;2022-10-26T10:32:15;95897.44;;;25.09;35.85
6224;BME280;3145;42.726;23.342;2022-10-26T10:34:45;95880.06;;;25.05;35.96
6224;BME280;3145;42.726;23.342;2022-10-26T10:37:22;95893.75;;;25.20;35.88
6224;BME280;3145;42.726;23.342;2022-10-26T10:39:55;95897.47;;;25.40;35.87
6224;BME280;3145;42.726;23.342;2022-10-26T10:42:26;95717.16;;;24.40;35.48
6224;BME280;3145;42.726;23.342;2022-10-26T10:44:54;95883.09;;;25.66;35.18
6224;BME280;3145;42.726;23.342;2022-10-26T10:47:23;95884.72;;;25.36;35.44
6224;BME280;3145;42.726;23.342;2022-10-26T10:49:54;95878.53;;;25.14;35.71
6224;BME280;3145;42.726;23.342;2022-10-26T10:52:24;95875.56;;;24.89;35.08
6224;BME280;3145;42.726;23.342;2022-10-26T10:55:02;95887.94;;;25.33;35.53
6224;BME280;3145;42.726;23.342;2022-10-26T10:57:42;95864.22;;;25.45;35.10
6224;BME280;3145;42.726;23.342;2022-10-26T11:00:23;95833.88;;;25.43;34.03
6224;BME280;3145;42.726;23.342;2022-10-26T11:03:14;95880.53;;;25.55;34.32
6224;BME280;3145;42.726;23.342;2022-10-26T11:05:59;95866.22;;;25.59;34.47
6224;BME280;3145;42.726;23.342;2022-10-26T11:08:32;95873.06;;;25.67;34.40
6224;BME280;3145;42.726;23.342;2022-10-26T11:11:06;95858.69;;;25.61;33.90
6224;BME280;3145;42.726;23.342;2022-10-26T11:13:36;95847.13;;;25.39;34.18
6224;BME280;3145;42.726;23.342;2022-10-26T11:16:08;95863.50;;;25.54;34.97
6224;BME280;3145;42.726;23.342;2022-10-26T11:18:41;95863.78;;;25.58;34.56
6224;BME280;3145;42.726;23.342;2022-10-26T11:21:17;95869.78;;;25.65;34.42
6224;BME280;3145;42.726;23.342;2022-10-26T11:23:48;95842.84;;;25.48;33.75
6224;BME280;3145;42.726;23.342;2022-10-26T11:26:24;95865.50;;;25.69;34.35
6224;BME280;3145;42.726;23.342;2022-10-26T11:28:55;95858.97;;;25.65;33.64
6224;BME280;3145;42.726;23.342;2022-10-26T11:31:28;95780.69;;;24.64;33.95
6224;BME280;3145;42.726;23.342;2022-10-26T11:34:09;95810.47;;;24.69;34.80
6224;BME280;3145;42.726;23.342;2022-10-26T11:36:41;95856.38;;;25.17;33.06
6224;BME280;3145;42.726;23.342;2022-10-26T11:39:15;95851.03;;;25.27;32.82
6224;BME280;3145;42.726;23.342;2022-10-26T11:41:50;95846.88;;;25.41;31.95
6224;BME280;3145;42.726;23.342;2022-10-26T11:44:25;95855.53;;;25.43;32.89
6224;BME280;3145;42.726;23.342;2022-10-26T11:46:56;95845.59;;;25.22;32.96
6224;BME280;3145;42.726;23.342;2022-10-26T11:49:29;95823.91;;;25.17;33.06
6224;BME280;3145;42.726;23.342;2022-10-26T11:52:05;95858.78;;;25.13;32.56
6224;BME280;3145;42.726;23.342;2022-10-26T11:54:39;95830.63;;;25.09;32.70
6224;BME280;3145;42.726;23.342;2022-10-26T11:57:11;95850.28;;;25.00;32.94
6224;BME280;3145;42.726;23.342;2022-10-26T11:59:43;95841.06;;;25.01;33.06
6224;BME280;3145;42.726;23.342;2022-10-26T12:02:14;95849.88;;;25.18;32.73
6224;BME280;3145;42.726;23.342;2022-10-26T12:04:44;95848.88;;;25.24;32.46
6224;BME280;3145;42.726;23.342;2022-10-26T12:07:19;95839.63;;;25.20;32.21
6224;BME280;3145;42.726;23.342;2022-10-26T12:09:47;95844.00;;;25.26;32.32
6224;BME280;3145;42.726;23.342;2022-10-26T12:12:21;95843.00;;;25.32;31.74
6224;BME280;3145;42.726;23.342;2022-10-26T12:14:56;95847.22;;;25.23;32.51
6224;BME280;3145;42.726;23.342;2022-10-26T12:17:29;95843.81;;;25.32;32.55
6224;BME280;3145;42.726;23.342;2022-10-26T12:20:06;95838.13;;;25.34;32.31
6224;BME280;3145;42.726;23.342;2022-10-26T12:22:37;95833.69;;;25.23;32.45
6224;BME280;3145;42.726;23.342;2022-10-26T12:25:09;95837.59;;;25.32;31.93
6224;BME280;3145;42.726;23.342;2022-10-26T12:28:03;95802.50;;;24.36;31.65
6224;BME280;3145;42.726;23.342;2022-10-26T12:30:31;95835.88;;;24.68;31.88
6224;BME280;3145;42.726;23.342;2022-10-26T12:32:59;95831.59;;;24.72;31.27
6224;BME280;3145;42.726;23.342;2022-10-26T12:35:39;95833.41;;;24.66;31.71
6224;BME280;3145;42.726;23.342;2022-10-26T12:38:26;95831.59;;;24.29;31.74
6224;BME280;3145;42.726;23.342;2022-10-26T12:41:23;95817.22;;;24.23;31.62
6224;BME280;3145;42.726;23.342;2022-10-26T12:43:56;95794.81;;;24.28;31.77
6224;BME280;3145;42.726;23.342;2022-10-26T12:46:41;95828.81;;;24.45;31.61
6224;BME280;3145;42.726;23.342;2022-10-26T12:52:42;95822.28;;;24.41;32.29
6224;BME280;3145;42.726;23.342;2022-10-26T12:58:27;95829.88;;;24.44;32.00
6224;BME280;3145;42.726;23.342;2022-10-26T13:04:17;95825.34;;;24.50;32.37
6224;BME280;3145;42.726;23.342;2022-10-26T13:07:16;95825.56;;;24.43;31.66
6224;BME280;3145;42.726;23.342;2022-10-26T13:09:44;95827.00;;;24.29;31.38
6224;BME280;3145;42.726;23.342;2022-10-26T13:12:12;95807.59;;;24.11;31.72
6224;BME280;3145;42.726;23.342;2022-10-26T13:14:52;95819.53;;;24.15;31.67
6224;BME280;3145;42.726;23.342;2022-10-26T13:17:24;95830.66;;;24.18;31.39
6224;BME280;3145;42.726;23.342;2022-10-26T13:19:55;95779.84;;;23.94;31.33
6224;BME280;3145;42.726;23.342;2022-10-26T13:22:23;95837.19;;;24.22;30.24
6224;BME280;3145;42.726;23.342;2022-10-26T13:24:51;95834.41;;;24.17;30.42
6224;BME280;3145;42.726;23.342;2022-10-26T13:27:40;95831.22;;;23.99;28.40
6224;BME280;3145;42.726;23.342;2022-10-26T13:30:34;95826.28;;;23.96;28.58
6224;BME280;3145;42.726;23.342;2022-10-26T13:33:14;95844.56;;;23.89;28.52
6224;BME280;3145;42.726;23.342;2022-10-26T13:35:42;95851.19;;;23.81;28.72
6224;BME280;3145;42.726;23.342;2022-10-26T13:38:11;95841.88;;;23.72;28.67
6224;BME280;3145;42.726;23.342;2022-10-26T13:40:39;95835.03;;;23.65;28.80
6224;BME280;3145;42.726;23.342;2022-10-26T13:43:13;95820.97;;;23.46;28.94
6224;BME280;3145;42.726;23.342;2022-10-26T13:45:48;95838.31;;;23.34;29.67
6224;BME280;3145;42.726;23.342;2022-10-26T13:48:21;95846.34;;;23.29;28.85